This is the latest recevied weather packets stored in our database for station/object S50APT-10. If no packets are shown the sender has not sent any weather packets the latest 10 day(s).
| Time | Temp. | Humidity | Pressure | Rain* | Wind** | Luminosity | Snow |
|---|---|---|---|---|---|---|---|
| 1778181019 | 12.22° C | 61% | 1017.7 hPa | - | - | - | - |
| 1778180108 | 15° C | 53% | 1017.1 hPa | - | - | - | - |
| 1778179188 | 16.11° C | 62% | 1016.6 hPa | - | - | - | - |
| 1778178279 | 15.56° C | 63% | 1015.7 hPa | - | - | - | - |
| 1778177367 | 15.56° C | 62% | 1015.3 hPa | - | - | - | - |
| 1778176457 | 16.11° C | 61% | 1015.1 hPa | - | - | - | - |
| 1778175536 | 17.22° C | 59% | 1014.8 hPa | - | - | - | - |
| 1778174626 | 17.78° C | 56% | 1014.7 hPa | - | - | - | - |
| 1778173707 | 18.89° C | 53% | 1014.7 hPa | - | - | - | - |
| 1778172797 | 19.44° C | 51% | 1014.7 hPa | - | - | - | - |
| 1778171874 | 20.56° C | 49% | 1014.8 hPa | - | - | - | - |
| 1778170960 | 21.11° C | 46% | 1014.7 hPa | - | - | - | - |
| 1778169125 | 21.67° C | 48% | 1014.8 hPa | - | - | - | - |
| 1778168214 | 22.78° C | 45% | 1014.7 hPa | - | - | - | - |
| 1778167275 | 23.33° C | 43% | 1014.6 hPa | - | - | - | - |
| 1778166354 | 22.22° C | 47% | 1014.6 hPa | - | - | - | - |
| 1778165440 | 23.33° C | 46% | 1014.7 hPa | - | - | - | - |
| 1778164543 | 23.33° C | 46% | 1014.6 hPa | - | - | - | - |
| 1778163617 | 22.22° C | 47% | 1014.7 hPa | - | - | - | - |
| 1778162699 | 22.78° C | 44% | 1014.9 hPa | - | - | - | - |
| 1778161795 | 23.33° C | 40% | 1015 hPa | - | - | - | - |
| 1778160884 | 25° C | 39% | 1015 hPa | - | - | - | - |
| 1778159974 | 22.78° C | 44% | 1015.1 hPa | - | - | - | - |
| 1778158144 | 26.11° C | 38% | 1015.2 hPa | - | - | - | - |
| 1778157227 | 23.89° C | 44% | 1015.3 hPa | - | - | - | - |
* Rain since midnight (hover to see other rain measurements)
** Current wind speed in m/s (hover to see current wind gust speed)